Flight Track Log - Related Links

Times and Time Zones

All times are in EDT time to prevent confusion due to time zone crossing. See the N777RP flight status page for this flight to view local times or setup timezone preferences in your user account.

Time Position Orientation Groundspeed Altitude Reporting Facility
EDT Latitude Longitude Course Direction KTS MPH feet Rate Location/Type
Thu 09:50:36 AM 45.7600 -84.7644 177° South 116 133 4,200  Level Minneapolis Center
Thu 09:51:38 AM 45.7122 -84.7553 172° South 158 182 5,100 829 Climbing Minneapolis Center
Thu 09:52:39 AM 45.6686 -84.7536 178° South 158 182 5,900 732 Climbing Minneapolis Center
Thu 09:53:41 AM 45.6214 -84.7519 179° South 159 183 6,600 732 Climbing Minneapolis Center
Thu 09:54:00 AM 45.5889 -84.7226 180° South  Level Estimated
Thu 09:54:42 AM 45.5764 -84.7494 178° South 162 186 7,400  Level Minneapolis Center
Thu 09:55:00 AM 45.5385 -84.7193 177° South  Level FlightAware Approximate
Thu 09:55:44 AM 45.5272 -84.7469 178° South 163 188 8,300  Level Minneapolis Center
Thu 09:56:46 AM 45.4806 -84.7436 177° South 165 190 9,100 774 Climbing Minneapolis Center
Thu 09:57:48 AM 45.4306 -84.7400 177° South 166 191 9,900 774 Climbing Minneapolis Center
Thu 09:58:50 AM 45.3825 -84.7369 177° South 170 196 10,700 871 Climbing Minneapolis Center
Thu 09:59:52 AM 45.3319 -84.7367 180° South 173 199 11,700 878 Climbing Minneapolis Center
Thu 10:00:53 AM 45.2872 -84.7428 185° South 168 193 12,500 780 Climbing Minneapolis Center
Thu 10:01:55 AM 45.2367 -84.7489 185° South 168 193 13,300 726 Climbing Minneapolis Center
Thu 10:02:57 AM 45.1886 -84.7519 183° South 169 194 14,000 339 Climbing Minneapolis Center
Thu 10:03:59 AM 45.1311 -84.7561 183° South 192 221 14,000  Level Minneapolis Center
Thu 10:05:00 AM 45.0722 -84.7583 182° South 208 239 14,000  Level Minneapolis Center
Thu 10:06:02 AM 45.0086 -84.7617 182° South 209 241 14,000  Level Minneapolis Center
Thu 10:07:04 AM 44.9506 -84.7661 183° South 210 242 14,000  Level Minneapolis Center
Thu 10:08:06 AM 44.8886 -84.7708 183° South 210 242 14,000  Level Minneapolis Center
Thu 10:09:07 AM 44.8306 -84.7758 183° South 210 242 14,000  Level Minneapolis Center
Thu 10:10:09 AM 44.7706 -84.7797 183° South 210 242 14,000  Level Minneapolis Center
Thu 10:11:11 AM 44.7142 -84.7844 183° South 207 238 14,000  Level Minneapolis Center
Thu 10:12:13 AM 44.6556 -84.7858 181° South 207 238 14,000  Level Minneapolis Center
Thu 10:13:14 AM 44.5964 -84.7789 175° South 208 239 14,000  Level Minneapolis Center
Thu 10:14:16 AM 44.5372 -84.7717 175° South 208 239 14,000  Level Minneapolis Center
Thu 10:15:18 AM 44.4769 -84.7664 176° South 209 241 14,000  Level Minneapolis Center
Thu 10:16:20 AM 44.4161 -84.7592 175° South 214 246 14,000  Level Minneapolis Center
Thu 10:17:22 AM 44.3558 -84.7522 175° South 214 246 14,000 49 Level Minneapolis Center
Thu 10:18:23 AM 44.2842 -84.7447 176° South 214 246 14,100 49 Climbing Minneapolis Center
Thu 10:19:25 AM 44.2247 -84.7375 175° South 214 246 14,100 -48 Level Minneapolis Center
Thu 10:20:27 AM 44.1639 -84.7308 176° South 214 246 14,000  Descending Minneapolis Center
Thu 10:21:29 AM 44.1039 -84.7247 176° South 215 247 14,100 48 Climbing Minneapolis Center
Thu 10:22:31 AM 44.0433 -84.7186 176° South 215 247 14,100  Level Minneapolis Center
Thu 10:23:33 AM 43.9831 -84.7122 176° South 215 247 14,100  Level Minneapolis Center
Thu 10:24:34 AM 43.9233 -84.7058 176° South 215 247 14,100  Level Minneapolis Center
Thu 10:25:36 AM 43.8528 -84.6983 176° South 215 247 14,100  Level Minneapolis Center
Thu 10:26:38 AM 43.7933 -84.6925 176° South 215 247 14,100 -48 Level Minneapolis Center
Thu 10:27:40 AM 43.7342 -84.6867 176° South 215 247 14,000 -48 Descending Minneapolis Center
Thu 10:28:42 AM 43.6753 -84.6803 176° South 215 247 14,000  Level Minneapolis Center
Thu 10:29:44 AM 43.6161 -84.6731 175° South 215 247 14,000  Level Minneapolis Center
Thu 10:30:20 AM 43.5781 -84.6708 178° South 214 246 14,000  Level Cleveland Center
Thu 10:31:22 AM 43.5181 -84.6642 175° South 214 246 14,000 -290 Level Cleveland Center
Thu 10:32:24 AM 43.4450 -84.6558 175° South 216 249 13,400 -720 Descending Cleveland Center
Thu 10:33:27 AM 43.3800 -84.6500 176° South 227 261 12,500 -960 Descending Cleveland Center
Thu 10:34:29 AM 43.3128 -84.6442 176° South 238 274 11,400 -726 Descending Cleveland Center
Thu 10:35:31 AM 43.2486 -84.6356 174° South 238 274 11,000 -194 Descending Cleveland Center
Thu 10:36:33 AM 43.1892 -84.6294 176° South 220 253 11,000 -48 Level Cleveland Center
Thu 10:37:35 AM 43.1322 -84.6233 176° South 210 242 10,900 -581 Descending Cleveland Center
Thu 10:38:37 AM 43.0619 -84.6158 176° South 205 236 9,800 -1,306 Descending Cleveland Center
Thu 10:39:39 AM 42.9936 -84.6094 176° South 231 266 8,200 -1,500 Descending Cleveland Center
Thu 10:40:41 AM 42.9414 -84.5664 149° Southeast 237 273 6,700 -1,452 Descending Cleveland Center
Thu 10:41:43 AM 42.8872 -84.5192 147° Southeast 225 259 5,200 -1,500 Descending Cleveland Center
Thu 10:42:45 AM 42.8297 -84.4836 156° South 222 255 3,600 -1,210 Descending Cleveland Center
Thu 10:43:47 AM 42.7847 -84.4517 152° Southeast 181 208 2,700 -480 Descending Cleveland Center
Thu 10:44:50 AM 42.7797 -84.4956 261° West 146 168 2,600 -95 Descending Cleveland Center

Login

Don't have an account? Register now (free) for customized features, flight alerts, and more!